sensor_id;sensor_type;location;lat;lon;timestamp;temperature;humidity
20376;DHT22;10347;51.828;6.466;2023-01-23T00:00:51;4.50;99.90
20376;DHT22;10347;51.828;6.466;2023-01-23T00:03:17;4.60;99.90
20376;DHT22;10347;51.828;6.466;2023-01-23T00:05:43;4.60;99.90
20376;DHT22;10347;51.828;6.466;2023-01-23T00:08:09;4.60;99.90
20376;DHT22;10347;51.828;6.466;2023-01-23T00:10:36;4.60;99.90
20376;DHT22;10347;51.828;6.466;2023-01-23T00:13:01;4.60;99.90
20376;DHT22;10347;51.828;6.466;2023-01-23T00:15:27;4.60;99.90
20376;DHT22;10347;51.828;6.466;2023-01-23T00:17:52;4.60;99.90
20376;DHT22;10347;51.828;6.466;2023-01-23T00:20:18;4.60;99.90
20376;DHT22;10347;51.828;6.466;2023-01-23T00:22:43;4.60;99.90
20376;DHT22;10347;51.828;6.466;2023-01-23T00:25:09;4.60;99.90
20376;DHT22;10347;51.828;6.466;2023-01-23T00:27:35;4.60;99.90
20376;DHT22;10347;51.828;6.466;2023-01-23T00:30:00;4.60;99.90
20376;DHT22;10347;51.828;6.466;2023-01-23T00:32:26;4.60;99.90
20376;DHT22;10347;51.828;6.466;2023-01-23T00:34:52;4.60;99.90
20376;DHT22;10347;51.828;6.466;2023-01-23T00:37:17;4.60;99.90
20376;DHT22;10347;51.828;6.466;2023-01-23T00:39:43;4.60;99.90
20376;DHT22;10347;51.828;6.466;2023-01-23T00:42:10;4.70;99.90
20376;DHT22;10347;51.828;6.466;2023-01-23T00:44:36;4.60;99.90
20376;DHT22;10347;51.828;6.466;2023-01-23T00:47:01;4.60;99.90
20376;DHT22;10347;51.828;6.466;2023-01-23T00:49:27;4.60;99.90
20376;DHT22;10347;51.828;6.466;2023-01-23T00:51:54;4.60;99.90
20376;DHT22;10347;51.828;6.466;2023-01-23T00:54:21;4.70;99.90
20376;DHT22;10347;51.828;6.466;2023-01-23T00:56:47;4.70;99.90
20376;DHT22;10347;51.828;6.466;2023-01-23T00:59:13;4.70;99.90
20376;DHT22;10347;51.828;6.466;2023-01-23T01:01:38;4.70;99.90
20376;DHT22;10347;51.828;6.466;2023-01-23T01:04:04;4.70;99.90
20376;DHT22;10347;51.828;6.466;2023-01-23T01:06:30;4.70;99.90
20376;DHT22;10347;51.828;6.466;2023-01-23T01:08:57;4.70;99.90
20376;DHT22;10347;51.828;6.466;2023-01-23T01:11:23;4.70;99.90
20376;DHT22;10347;51.828;6.466;2023-01-23T01:13:49;4.70;99.90
20376;DHT22;10347;51.828;6.466;2023-01-23T01:16:15;4.70;99.90
20376;DHT22;10347;51.828;6.466;2023-01-23T01:18:41;4.70;99.90
20376;DHT22;10347;51.828;6.466;2023-01-23T01:21:08;4.70;99.90
20376;DHT22;10347;51.828;6.466;2023-01-23T01:23:34;4.70;99.90
20376;DHT22;10347;51.828;6.466;2023-01-23T01:26:00;4.70;99.90
20376;DHT22;10347;51.828;6.466;2023-01-23T01:28:27;4.70;99.90
20376;DHT22;10347;51.828;6.466;2023-01-23T01:30:55;4.70;99.90
20376;DHT22;10347;51.828;6.466;2023-01-23T01:33:20;4.70;99.90
20376;DHT22;10347;51.828;6.466;2023-01-23T01:35:46;4.70;99.90
20376;DHT22;10347;51.828;6.466;2023-01-23T01:38:11;4.70;99.90
20376;DHT22;10347;51.828;6.466;2023-01-23T01:40:37;4.70;99.90
20376;DHT22;10347;51.828;6.466;2023-01-23T01:43:08;4.70;99.90
20376;DHT22;10347;51.828;6.466;2023-01-23T01:46:21;4.70;99.90
20376;DHT22;10347;51.828;6.466;2023-01-23T01:48:52;4.70;99.90
20376;DHT22;10347;51.828;6.466;2023-01-23T01:51:40;4.70;99.90
20376;DHT22;10347;51.828;6.466;2023-01-23T01:54:26;4.70;99.90
20376;DHT22;10347;51.828;6.466;2023-01-23T01:57:00;4.70;99.90
20376;DHT22;10347;51.828;6.466;2023-01-23T01:59:30;4.70;99.90
20376;DHT22;10347;51.828;6.466;2023-01-23T02:02:01;4.70;99.90
20376;DHT22;10347;51.828;6.466;2023-01-23T02:04:31;4.70;99.90
20376;DHT22;10347;51.828;6.466;2023-01-23T02:06:59;4.70;99.90
20376;DHT22;10347;51.828;6.466;2023-01-23T02:09:28;4.80;99.90
20376;DHT22;10347;51.828;6.466;2023-01-23T02:11:58;4.80;99.90
20376;DHT22;10347;51.828;6.466;2023-01-23T02:14:23;4.80;99.90
20376;DHT22;10347;51.828;6.466;2023-01-23T02:16:50;4.70;99.90
20376;DHT22;10347;51.828;6.466;2023-01-23T02:22:12;4.70;99.90
20376;DHT22;10347;51.828;6.466;2023-01-23T02:27:45;4.70;99.90
20376;DHT22;10347;51.828;6.466;2023-01-23T02:30:11;4.70;99.90
20376;DHT22;10347;51.828;6.466;2023-01-23T02:32:38;4.70;99.90
20376;DHT22;10347;51.828;6.466;2023-01-23T02:35:15;4.70;99.90
20376;DHT22;10347;51.828;6.466;2023-01-23T02:37:45;4.70;99.90
20376;DHT22;10347;51.828;6.466;2023-01-23T02:40:12;4.70;99.90
20376;DHT22;10347;51.828;6.466;2023-01-23T02:42:40;4.70;99.90
20376;DHT22;10347;51.828;6.466;2023-01-23T02:45:07;4.70;99.90
20376;DHT22;10347;51.828;6.466;2023-01-23T02:47:33;4.70;99.90
20376;DHT22;10347;51.828;6.466;2023-01-23T02:49:59;4.70;99.90
20376;DHT22;10347;51.828;6.466;2023-01-23T02:52:24;4.70;99.90
20376;DHT22;10347;51.828;6.466;2023-01-23T02:54:50;4.70;99.90
20376;DHT22;10347;51.828;6.466;2023-01-23T02:57:16;4.80;99.90
20376;DHT22;10347;51.828;6.466;2023-01-23T02:59:41;4.70;99.90
20376;DHT22;10347;51.828;6.466;2023-01-23T03:02:25;4.70;99.90
20376;DHT22;10347;51.828;6.466;2023-01-23T03:04:52;4.70;99.90
20376;DHT22;10347;51.828;6.466;2023-01-23T03:07:17;4.70;99.90
20376;DHT22;10347;51.828;6.466;2023-01-23T03:09:43;4.80;99.90
20376;DHT22;10347;51.828;6.466;2023-01-23T03:12:12;4.70;99.90
20376;DHT22;10347;51.828;6.466;2023-01-23T03:14:39;4.80;99.90
20376;DHT22;10347;51.828;6.466;2023-01-23T03:17:05;4.70;99.90
20376;DHT22;10347;51.828;6.466;2023-01-23T03:19:31;4.70;99.90
20376;DHT22;10347;51.828;6.466;2023-01-23T03:21:57;4.80;99.90
20376;DHT22;10347;51.828;6.466;2023-01-23T03:24:22;4.70;99.90
20376;DHT22;10347;51.828;6.466;2023-01-23T03:26:49;4.80;99.90
20376;DHT22;10347;51.828;6.466;2023-01-23T03:32:01;4.70;99.90
20376;DHT22;10347;51.828;6.466;2023-01-23T03:34:28;4.70;99.90
20376;DHT22;10347;51.828;6.466;2023-01-23T03:36:53;4.70;99.90
20376;DHT22;10347;51.828;6.466;2023-01-23T03:39:19;4.80;99.90
20376;DHT22;10347;51.828;6.466;2023-01-23T03:42:03;4.80;99.90
20376;DHT22;10347;51.828;6.466;2023-01-23T03:44:29;4.80;99.90
20376;DHT22;10347;51.828;6.466;2023-01-23T03:46:54;4.70;99.90
20376;DHT22;10347;51.828;6.466;2023-01-23T03:49:20;4.80;99.90
20376;DHT22;10347;51.828;6.466;2023-01-23T03:51:45;4.80;99.90
20376;DHT22;10347;51.828;6.466;2023-01-23T03:54:11;4.70;99.90
20376;DHT22;10347;51.828;6.466;2023-01-23T03:56:39;4.70;99.90
20376;DHT22;10347;51.828;6.466;2023-01-23T03:59:04;4.80;99.90
20376;DHT22;10347;51.828;6.466;2023-01-23T04:01:30;4.80;99.90
20376;DHT22;10347;51.828;6.466;2023-01-23T04:03:55;4.80;99.90
20376;DHT22;10347;51.828;6.466;2023-01-23T04:06:21;4.80;99.90
20376;DHT22;10347;51.828;6.466;2023-01-23T04:08:47;4.80;99.90
20376;DHT22;10347;51.828;6.466;2023-01-23T04:11:12;4.80;99.90
20376;DHT22;10347;51.828;6.466;2023-01-23T04:13:38;4.80;99.90
20376;DHT22;10347;51.828;6.466;2023-01-23T04:16:05;4.80;99.90
20376;DHT22;10347;51.828;6.466;2023-01-23T04:18:31;4.70;99.90
20376;DHT22;10347;51.828;6.466;2023-01-23T04:20:57;4.80;99.90
20376;DHT22;10347;51.828;6.466;2023-01-23T04:23:23;4.80;99.90
20376;DHT22;10347;51.828;6.466;2023-01-23T04:25:50;4.70;99.90
20376;DHT22;10347;51.828;6.466;2023-01-23T04:28:15;4.70;99.90
20376;DHT22;10347;51.828;6.466;2023-01-23T04:30:41;4.70;99.90
20376;DHT22;10347;51.828;6.466;2023-01-23T04:33:07;4.70;99.90
20376;DHT22;10347;51.828;6.466;2023-01-23T04:35:32;4.60;99.90
20376;DHT22;10347;51.828;6.466;2023-01-23T04:37:58;4.70;99.90
20376;DHT22;10347;51.828;6.466;2023-01-23T04:40:24;4.70;99.90
20376;DHT22;10347;51.828;6.466;2023-01-23T04:42:49;4.70;99.90
20376;DHT22;10347;51.828;6.466;2023-01-23T04:45:15;4.60;99.90
20376;DHT22;10347;51.828;6.466;2023-01-23T04:47:40;4.60;99.90
20376;DHT22;10347;51.828;6.466;2023-01-23T04:50:06;4.60;99.90
20376;DHT22;10347;51.828;6.466;2023-01-23T04:52:32;4.70;99.90
20376;DHT22;10347;51.828;6.466;2023-01-23T04:54:58;4.70;99.90
20376;DHT22;10347;51.828;6.466;2023-01-23T04:57:23;4.70;99.90
20376;DHT22;10347;51.828;6.466;2023-01-23T04:59:49;4.70;99.90
20376;DHT22;10347;51.828;6.466;2023-01-23T05:02:14;4.70;99.90
20376;DHT22;10347;51.828;6.466;2023-01-23T05:04:40;4.70;99.90
20376;DHT22;10347;51.828;6.466;2023-01-23T05:07:06;4.70;99.90
20376;DHT22;10347;51.828;6.466;2023-01-23T05:09:34;4.70;99.90
20376;DHT22;10347;51.828;6.466;2023-01-23T05:12:00;4.70;99.90
20376;DHT22;10347;51.828;6.466;2023-01-23T05:14:25;4.70;99.90
20376;DHT22;10347;51.828;6.466;2023-01-23T05:16:51;4.70;99.90
20376;DHT22;10347;51.828;6.466;2023-01-23T05:19:16;4.80;99.90
20376;DHT22;10347;51.828;6.466;2023-01-23T05:21:42;4.70;99.90
20376;DHT22;10347;51.828;6.466;2023-01-23T05:24:07;4.70;99.90
20376;DHT22;10347;51.828;6.466;2023-01-23T05:26:35;4.80;99.90
20376;DHT22;10347;51.828;6.466;2023-01-23T05:29:00;4.80;99.90
20376;DHT22;10347;51.828;6.466;2023-01-23T05:31:26;4.80;99.90
20376;DHT22;10347;51.828;6.466;2023-01-23T05:33:52;4.80;99.90
20376;DHT22;10347;51.828;6.466;2023-01-23T05:36:17;4.80;99.90
20376;DHT22;10347;51.828;6.466;2023-01-23T05:38:43;4.80;99.90
20376;DHT22;10347;51.828;6.466;2023-01-23T05:41:08;4.80;99.90
20376;DHT22;10347;51.828;6.466;2023-01-23T05:43:34;4.80;99.90
20376;DHT22;10347;51.828;6.466;2023-01-23T05:46:00;4.80;99.90
20376;DHT22;10347;51.828;6.466;2023-01-23T05:48:26;4.80;99.90
20376;DHT22;10347;51.828;6.466;2023-01-23T05:50:51;4.80;99.90
20376;DHT22;10347;51.828;6.466;2023-01-23T05:53:17;4.80;99.90
20376;DHT22;10347;51.828;6.466;2023-01-23T05:55:42;4.80;99.90
20376;DHT22;10347;51.828;6.466;2023-01-23T05:58:08;4.90;99.90
20376;DHT22;10347;51.828;6.466;2023-01-23T06:00:34;4.90;99.90
20376;DHT22;10347;51.828;6.466;2023-01-23T06:03:00;4.80;99.90
20376;DHT22;10347;51.828;6.466;2023-01-23T06:05:25;4.90;99.90
20376;DHT22;10347;51.828;6.466;2023-01-23T06:07:51;4.80;99.90
20376;DHT22;10347;51.828;6.466;2023-01-23T06:10:17;4.80;99.90
20376;DHT22;10347;51.828;6.466;2023-01-23T06:12:42;4.80;99.90
20376;DHT22;10347;51.828;6.466;2023-01-23T06:15:08;4.80;99.90
20376;DHT22;10347;51.828;6.466;2023-01-23T06:17:34;4.70;99.90
20376;DHT22;10347;51.828;6.466;2023-01-23T06:20:00;4.80;99.90
20376;DHT22;10347;51.828;6.466;2023-01-23T06:22:25;4.80;99.90
20376;DHT22;10347;51.828;6.466;2023-01-23T06:24:51;4.70;99.90
20376;DHT22;10347;51.828;6.466;2023-01-23T06:27:17;4.70;99.90
20376;DHT22;10347;51.828;6.466;2023-01-23T06:29:42;4.80;99.90
20376;DHT22;10347;51.828;6.466;2023-01-23T06:32:08;4.80;99.90
20376;DHT22;10347;51.828;6.466;2023-01-23T06:34:34;4.80;99.90
20376;DHT22;10347;51.828;6.466;2023-01-23T06:37:01;4.80;99.90
20376;DHT22;10347;51.828;6.466;2023-01-23T06:39:27;4.80;99.90
20376;DHT22;10347;51.828;6.466;2023-01-23T06:41:54;4.80;99.90
20376;DHT22;10347;51.828;6.466;2023-01-23T06:44:20;4.90;99.90
20376;DHT22;10347;51.828;6.466;2023-01-23T06:46:46;4.80;99.90
20376;DHT22;10347;51.828;6.466;2023-01-23T06:49:11;4.90;99.90
20376;DHT22;10347;51.828;6.466;2023-01-23T06:51:37;4.90;99.90
20376;DHT22;10347;51.828;6.466;2023-01-23T06:54:02;4.80;99.90
20376;DHT22;10347;51.828;6.466;2023-01-23T06:56:28;4.80;99.90
20376;DHT22;10347;51.828;6.466;2023-01-23T06:58:53;4.90;99.90
20376;DHT22;10347;51.828;6.466;2023-01-23T07:01:19;4.90;99.90
20376;DHT22;10347;51.828;6.466;2023-01-23T07:03:45;4.90;99.90
20376;DHT22;10347;51.828;6.466;2023-01-23T07:06:11;4.90;99.90
20376;DHT22;10347;51.828;6.466;2023-01-23T07:08:37;4.90;99.90
20376;DHT22;10347;51.828;6.466;2023-01-23T07:11:03;4.90;99.90
20376;DHT22;10347;51.828;6.466;2023-01-23T07:13:29;4.90;99.90
20376;DHT22;10347;51.828;6.466;2023-01-23T07:15:54;4.90;99.90
20376;DHT22;10347;51.828;6.466;2023-01-23T07:18:20;4.90;99.90
20376;DHT22;10347;51.828;6.466;2023-01-23T07:20:46;4.90;99.90
20376;DHT22;10347;51.828;6.466;2023-01-23T07:23:12;4.90;99.90
20376;DHT22;10347;51.828;6.466;2023-01-23T07:25:38;4.90;99.90
20376;DHT22;10347;51.828;6.466;2023-01-23T07:28:04;5.00;99.90
20376;DHT22;10347;51.828;6.466;2023-01-23T07:30:31;4.90;99.90
20376;DHT22;10347;51.828;6.466;2023-01-23T07:32:57;4.90;99.90
20376;DHT22;10347;51.828;6.466;2023-01-23T07:35:23;5.00;99.90
20376;DHT22;10347;51.828;6.466;2023-01-23T07:37:49;5.00;99.90
20376;DHT22;10347;51.828;6.466;2023-01-23T07:40:15;5.00;99.90
20376;DHT22;10347;51.828;6.466;2023-01-23T07:42:40;5.00;99.90
20376;DHT22;10347;51.828;6.466;2023-01-23T07:45:07;5.00;99.90
20376;DHT22;10347;51.828;6.466;2023-01-23T07:47:34;5.00;99.90
20376;DHT22;10347;51.828;6.466;2023-01-23T07:49:59;5.00;99.90
20376;DHT22;10347;51.828;6.466;2023-01-23T07:52:25;5.00;99.90
20376;DHT22;10347;51.828;6.466;2023-01-23T07:54:50;5.00;99.90
20376;DHT22;10347;51.828;6.466;2023-01-23T07:57:16;5.00;99.90
20376;DHT22;10347;51.828;6.466;2023-01-23T07:59:42;5.00;99.90
20376;DHT22;10347;51.828;6.466;2023-01-23T08:02:09;5.00;99.90
20376;DHT22;10347;51.828;6.466;2023-01-23T08:04:35;5.00;99.90
20376;DHT22;10347;51.828;6.466;2023-01-23T08:07:01;5.00;99.90
20376;DHT22;10347;51.828;6.466;2023-01-23T08:09:26;5.00;99.90
20376;DHT22;10347;51.828;6.466;2023-01-23T08:11:52;5.00;99.90
20376;DHT22;10347;51.828;6.466;2023-01-23T08:14:17;5.00;99.90
20376;DHT22;10347;51.828;6.466;2023-01-23T08:16:46;5.10;99.90
20376;DHT22;10347;51.828;6.466;2023-01-23T08:19:12;5.10;99.90
20376;DHT22;10347;51.828;6.466;2023-01-23T08:21:37;5.10;99.90
20376;DHT22;10347;51.828;6.466;2023-01-23T08:24:03;5.10;99.90
20376;DHT22;10347;51.828;6.466;2023-01-23T08:26:29;5.10;99.90
20376;DHT22;10347;51.828;6.466;2023-01-23T08:28:55;5.10;99.90
20376;DHT22;10347;51.828;6.466;2023-01-23T08:31:20;5.10;99.90
20376;DHT22;10347;51.828;6.466;2023-01-23T08:33:46;5.10;99.90
20376;DHT22;10347;51.828;6.466;2023-01-23T08:36:12;5.10;99.90
20376;DHT22;10347;51.828;6.466;2023-01-23T08:38:38;5.20;99.90
20376;DHT22;10347;51.828;6.466;2023-01-23T08:41:04;5.10;99.90
20376;DHT22;10347;51.828;6.466;2023-01-23T08:43:30;5.10;99.90
20376;DHT22;10347;51.828;6.466;2023-01-23T08:45:57;5.20;99.90
20376;DHT22;10347;51.828;6.466;2023-01-23T08:48:24;5.20;99.90
20376;DHT22;10347;51.828;6.466;2023-01-23T08:50:51;5.20;99.90
20376;DHT22;10347;51.828;6.466;2023-01-23T08:53:17;5.20;99.90
20376;DHT22;10347;51.828;6.466;2023-01-23T08:55:42;5.20;99.90
20376;DHT22;10347;51.828;6.466;2023-01-23T08:58:09;5.20;99.90
20376;DHT22;10347;51.828;6.466;2023-01-23T09:00:37;5.20;99.90
20376;DHT22;10347;51.828;6.466;2023-01-23T09:03:03;5.20;99.90
20376;DHT22;10347;51.828;6.466;2023-01-23T09:05:29;5.20;99.90
20376;DHT22;10347;51.828;6.466;2023-01-23T09:07:56;5.20;99.90
20376;DHT22;10347;51.828;6.466;2023-01-23T09:10:23;5.20;99.90
20376;DHT22;10347;51.828;6.466;2023-01-23T09:12:53;5.20;99.90
20376;DHT22;10347;51.828;6.466;2023-01-23T09:15:19;5.30;99.90
20376;DHT22;10347;51.828;6.466;2023-01-23T09:17:45;5.20;99.90
20376;DHT22;10347;51.828;6.466;2023-01-23T09:20:11;5.20;99.90
20376;DHT22;10347;51.828;6.466;2023-01-23T09:22:36;5.20;99.90
20376;DHT22;10347;51.828;6.466;2023-01-23T09:25:03;5.20;99.90
20376;DHT22;10347;51.828;6.466;2023-01-23T09:27:28;5.20;99.90
20376;DHT22;10347;51.828;6.466;2023-01-23T09:29:54;5.30;99.90
20376;DHT22;10347;51.828;6.466;2023-01-23T09:32:19;5.30;99.90
20376;DHT22;10347;51.828;6.466;2023-01-23T09:34:45;5.40;99.90
20376;DHT22;10347;51.828;6.466;2023-01-23T09:37:14;5.40;99.90
20376;DHT22;10347;51.828;6.466;2023-01-23T09:39:41;5.40;99.90
20376;DHT22;10347;51.828;6.466;2023-01-23T09:42:16;5.50;99.90
20376;DHT22;10347;51.828;6.466;2023-01-23T09:44:46;5.50;99.90
20376;DHT22;10347;51.828;6.466;2023-01-23T09:47:19;5.50;99.90
20376;DHT22;10347;51.828;6.466;2023-01-23T09:49:59;5.50;99.90
20376;DHT22;10347;51.828;6.466;2023-01-23T09:52:31;5.60;99.90
20376;DHT22;10347;51.828;6.466;2023-01-23T09:55:22;5.60;99.90
20376;DHT22;10347;51.828;6.466;2023-01-23T09:57:54;5.60;99.90
20376;DHT22;10347;51.828;6.466;2023-01-23T10:00:31;5.60;99.90
20376;DHT22;10347;51.828;6.466;2023-01-23T10:03:02;5.60;99.90
20376;DHT22;10347;51.828;6.466;2023-01-23T10:05:42;5.60;99.90
20376;DHT22;10347;51.828;6.466;2023-01-23T10:11:37;5.60;99.90
20376;DHT22;10347;51.828;6.466;2023-01-23T10:14:49;5.60;99.90
20376;DHT22;10347;51.828;6.466;2023-01-23T10:20:26;5.70;99.90
20376;DHT22;10347;51.828;6.466;2023-01-23T10:25:27;5.70;99.90
20376;DHT22;10347;51.828;6.466;2023-01-23T10:28:14;5.70;99.90
20376;DHT22;10347;51.828;6.466;2023-01-23T10:30:41;5.70;99.90
20376;DHT22;10347;51.828;6.466;2023-01-23T10:33:17;5.70;99.90
20376;DHT22;10347;51.828;6.466;2023-01-23T10:35:54;5.70;99.90
20376;DHT22;10347;51.828;6.466;2023-01-23T10:38:35;5.70;99.90
20376;DHT22;10347;51.828;6.466;2023-01-23T10:41:03;5.70;99.90
20376;DHT22;10347;51.828;6.466;2023-01-23T10:43:43;5.70;99.90
20376;DHT22;10347;51.828;6.466;2023-01-23T10:46:18;5.70;99.90
20376;DHT22;10347;51.828;6.466;2023-01-23T10:48:51;5.70;99.90
20376;DHT22;10347;51.828;6.466;2023-01-23T10:51:32;5.70;99.90
20376;DHT22;10347;51.828;6.466;2023-01-23T10:54:03;5.80;99.90
20376;DHT22;10347;51.828;6.466;2023-01-23T10:56:30;5.80;99.90
20376;DHT22;10347;51.828;6.466;2023-01-23T10:58:58;5.80;99.90
20376;DHT22;10347;51.828;6.466;2023-01-23T11:01:30;5.80;99.90
20376;DHT22;10347;51.828;6.466;2023-01-23T11:04:03;5.80;99.90
20376;DHT22;10347;51.828;6.466;2023-01-23T11:06:33;5.80;99.90
20376;DHT22;10347;51.828;6.466;2023-01-23T11:08:59;5.80;99.90
20376;DHT22;10347;51.828;6.466;2023-01-23T11:11:27;5.80;99.90
20376;DHT22;10347;51.828;6.466;2023-01-23T11:14:13;5.80;99.90
20376;DHT22;10347;51.828;6.466;2023-01-23T11:16:41;5.80;99.90
20376;DHT22;10347;51.828;6.466;2023-01-23T11:21:35;5.80;99.90
20376;DHT22;10347;51.828;6.466;2023-01-23T11:26:42;5.80;99.90
20376;DHT22;10347;51.828;6.466;2023-01-23T11:29:22;5.80;99.90
20376;DHT22;10347;51.828;6.466;2023-01-23T11:32:14;5.80;99.90
20376;DHT22;10347;51.828;6.466;2023-01-23T11:34:52;5.80;99.90
20376;DHT22;10347;51.828;6.466;2023-01-23T11:37:29;5.80;99.90
20376;DHT22;10347;51.828;6.466;2023-01-23T11:40:02;5.80;99.90
20376;DHT22;10347;51.828;6.466;2023-01-23T11:42:29;5.80;99.90
20376;DHT22;10347;51.828;6.466;2023-01-23T11:44:57;5.80;99.90
20376;DHT22;10347;51.828;6.466;2023-01-23T11:50:44;5.80;99.90
20376;DHT22;10347;51.828;6.466;2023-01-23T11:53:33;5.80;99.90
20376;DHT22;10347;51.828;6.466;2023-01-23T11:56:21;5.90;99.90
20376;DHT22;10347;51.828;6.466;2023-01-23T11:59:06;5.90;99.90
20376;DHT22;10347;51.828;6.466;2023-01-23T12:21:29;6.00;99.90
20376;DHT22;10347;51.828;6.466;2023-01-23T12:29:38;5.90;99.90
20376;DHT22;10347;51.828;6.466;2023-01-23T12:32:38;5.90;99.90
20376;DHT22;10347;51.828;6.466;2023-01-23T12:37:52;5.90;99.90
20376;DHT22;10347;51.828;6.466;2023-01-23T12:40:27;6.00;99.90
20376;DHT22;10347;51.828;6.466;2023-01-23T12:43:21;6.00;99.90
20376;DHT22;10347;51.828;6.466;2023-01-23T12:45:54;6.00;99.90
20376;DHT22;10347;51.828;6.466;2023-01-23T12:48:26;6.00;99.90
20376;DHT22;10347;51.828;6.466;2023-01-23T12:51:15;6.00;99.90
20376;DHT22;10347;51.828;6.466;2023-01-23T12:53:44;6.00;99.90
20376;DHT22;10347;51.828;6.466;2023-01-23T12:56:16;6.00;99.90
20376;DHT22;10347;51.828;6.466;2023-01-23T13:04:45;6.00;99.90
20376;DHT22;10347;51.828;6.466;2023-01-23T13:07:23;6.00;99.90
20376;DHT22;10347;51.828;6.466;2023-01-23T13:12:38;6.10;99.90
20376;DHT22;10347;51.828;6.466;2023-01-23T13:20:27;6.20;99.90
20376;DHT22;10347;51.828;6.466;2023-01-23T13:23:29;6.20;99.90
20376;DHT22;10347;51.828;6.466;2023-01-23T13:28:41;6.20;99.90
20376;DHT22;10347;51.828;6.466;2023-01-23T13:36:49;6.20;99.90
20376;DHT22;10347;51.828;6.466;2023-01-23T13:39:27;6.20;99.90
20376;DHT22;10347;51.828;6.466;2023-01-23T13:50:41;6.30;99.90
20376;DHT22;10347;51.828;6.466;2023-01-23T13:53:18;6.40;99.90
20376;DHT22;10347;51.828;6.466;2023-01-23T13:56:03;6.30;99.90
20376;DHT22;10347;51.828;6.466;2023-01-23T13:58:48;6.30;99.90
20376;DHT22;10347;51.828;6.466;2023-01-23T14:01:19;6.30;99.90
20376;DHT22;10347;51.828;6.466;2023-01-23T14:04:11;6.30;99.90
20376;DHT22;10347;51.828;6.466;2023-01-23T14:06:57;6.30;99.90
20376;DHT22;10347;51.828;6.466;2023-01-23T14:09:28;6.30;99.90
20376;DHT22;10347;51.828;6.466;2023-01-23T14:11:58;6.40;99.90
20376;DHT22;10347;51.828;6.466;2023-01-23T14:14:23;6.30;99.90
20376;DHT22;10347;51.828;6.466;2023-01-23T14:17:08;6.40;99.90
20376;DHT22;10347;51.828;6.466;2023-01-23T14:19:52;6.40;99.90
20376;DHT22;10347;51.828;6.466;2023-01-23T14:22:18;6.40;99.90
20376;DHT22;10347;51.828;6.466;2023-01-23T14:24:49;6.40;99.90
20376;DHT22;10347;51.828;6.466;2023-01-23T14:27:28;6.40;99.90
20376;DHT22;10347;51.828;6.466;2023-01-23T14:30:13;6.40;99.90
20376;DHT22;10347;51.828;6.466;2023-01-23T14:32:40;6.40;99.90
20376;DHT22;10347;51.828;6.466;2023-01-23T14:35:30;6.40;99.90
20376;DHT22;10347;51.828;6.466;2023-01-23T14:38:01;6.50;99.90
20376;DHT22;10347;51.828;6.466;2023-01-23T14:40:28;6.40;99.90
20376;DHT22;10347;51.828;6.466;2023-01-23T14:43:00;6.50;99.90
20376;DHT22;10347;51.828;6.466;2023-01-23T14:45:30;6.50;99.90
20376;DHT22;10347;51.828;6.466;2023-01-23T14:47:56;6.50;99.90
20376;DHT22;10347;51.828;6.466;2023-01-23T14:50:26;6.50;99.90
20376;DHT22;10347;51.828;6.466;2023-01-23T14:53:03;6.50;99.90
20376;DHT22;10347;51.828;6.466;2023-01-23T14:55:30;6.50;99.90
20376;DHT22;10347;51.828;6.466;2023-01-23T14:57:57;6.50;99.90
20376;DHT22;10347;51.828;6.466;2023-01-23T15:00:24;6.50;99.90
20376;DHT22;10347;51.828;6.466;2023-01-23T15:02:51;6.60;99.90
20376;DHT22;10347;51.828;6.466;2023-01-23T15:05:24;6.50;99.90
20376;DHT22;10347;51.828;6.466;2023-01-23T15:08:00;6.50;99.90
20376;DHT22;10347;51.828;6.466;2023-01-23T15:13:28;6.50;99.90
20376;DHT22;10347;51.828;6.466;2023-01-23T15:16:00;6.50;99.90
20376;DHT22;10347;51.828;6.466;2023-01-23T15:18:28;6.50;99.90
20376;DHT22;10347;51.828;6.466;2023-01-23T15:20:56;6.50;99.90
20376;DHT22;10347;51.828;6.466;2023-01-23T15:23:30;6.40;99.90
20376;DHT22;10347;51.828;6.466;2023-01-23T15:28:47;6.40;99.90
20376;DHT22;10347;51.828;6.466;2023-01-23T15:31:22;6.40;99.90
20376;DHT22;10347;51.828;6.466;2023-01-23T15:33:49;6.40;99.90
20376;DHT22;10347;51.828;6.466;2023-01-23T15:36:24;6.40;99.90
20376;DHT22;10347;51.828;6.466;2023-01-23T15:38:51;6.40;99.90
20376;DHT22;10347;51.828;6.466;2023-01-23T15:41:17;6.40;99.90
20376;DHT22;10347;51.828;6.466;2023-01-23T15:43:42;6.40;99.90
20376;DHT22;10347;51.828;6.466;2023-01-23T15:46:09;6.30;99.90
20376;DHT22;10347;51.828;6.466;2023-01-23T15:48:35;6.30;99.90
20376;DHT22;10347;51.828;6.466;2023-01-23T15:51:01;6.30;99.90
20376;DHT22;10347;51.828;6.466;2023-01-23T15:53:27;6.40;99.90
20376;DHT22;10347;51.828;6.466;2023-01-23T15:55:53;6.40;99.90
20376;DHT22;10347;51.828;6.466;2023-01-23T15:58:19;6.40;99.90
20376;DHT22;10347;51.828;6.466;2023-01-23T16:00:44;6.40;99.90
20376;DHT22;10347;51.828;6.466;2023-01-23T16:03:10;6.40;99.90
20376;DHT22;10347;51.828;6.466;2023-01-23T16:05:39;6.40;99.90
20376;DHT22;10347;51.828;6.466;2023-01-23T16:08:11;6.40;99.90
20376;DHT22;10347;51.828;6.466;2023-01-23T16:10:42;6.40;99.90
20376;DHT22;10347;51.828;6.466;2023-01-23T16:13:10;6.40;99.90
20376;DHT22;10347;51.828;6.466;2023-01-23T16:15:37;6.40;99.90
20376;DHT22;10347;51.828;6.466;2023-01-23T16:18:04;6.40;99.90
20376;DHT22;10347;51.828;6.466;2023-01-23T16:20:36;6.40;99.90
20376;DHT22;10347;51.828;6.466;2023-01-23T16:23:12;6.40;99.90
20376;DHT22;10347;51.828;6.466;2023-01-23T16:25:40;6.40;99.90
20376;DHT22;10347;51.828;6.466;2023-01-23T16:28:18;6.40;99.90
20376;DHT22;10347;51.828;6.466;2023-01-23T16:30:45;6.40;99.90
20376;DHT22;10347;51.828;6.466;2023-01-23T16:33:12;6.40;99.90
20376;DHT22;10347;51.828;6.466;2023-01-23T16:35:38;6.30;99.90
20376;DHT22;10347;51.828;6.466;2023-01-23T16:38:05;6.30;99.90
20376;DHT22;10347;51.828;6.466;2023-01-23T16:40:31;6.30;99.90
20376;DHT22;10347;51.828;6.466;2023-01-23T16:42:57;6.40;99.90
20376;DHT22;10347;51.828;6.466;2023-01-23T16:45:26;6.40;99.90
20376;DHT22;10347;51.828;6.466;2023-01-23T16:47:53;6.30;99.90
20376;DHT22;10347;51.828;6.466;2023-01-23T16:50:22;6.30;99.90
20376;DHT22;10347;51.828;6.466;2023-01-23T16:52:58;6.30;99.90
20376;DHT22;10347;51.828;6.466;2023-01-23T16:55:28;6.40;99.90
20376;DHT22;10347;51.828;6.466;2023-01-23T16:57:55;6.30;99.90
20376;DHT22;10347;51.828;6.466;2023-01-23T17:00:22;6.30;99.90
20376;DHT22;10347;51.828;6.466;2023-01-23T17:02:51;6.30;99.90
20376;DHT22;10347;51.828;6.466;2023-01-23T17:05:17;6.30;99.90
20376;DHT22;10347;51.828;6.466;2023-01-23T17:07:44;6.30;99.90
20376;DHT22;10347;51.828;6.466;2023-01-23T17:10:16;6.30;99.90
20376;DHT22;10347;51.828;6.466;2023-01-23T17:12:47;6.30;99.90
20376;DHT22;10347;51.828;6.466;2023-01-23T17:17:52;6.30;99.90
20376;DHT22;10347;51.828;6.466;2023-01-23T17:20:19;6.30;99.90
20376;DHT22;10347;51.828;6.466;2023-01-23T17:22:45;6.20;99.90
20376;DHT22;10347;51.828;6.466;2023-01-23T17:25:18;6.30;99.90
20376;DHT22;10347;51.828;6.466;2023-01-23T17:27:44;6.30;99.90
20376;DHT22;10347;51.828;6.466;2023-01-23T17:30:21;6.30;99.90